sensor_id;sensor_type;location;lat;lon;timestamp;P1;durP1;ratioP1;P2;durP2;ratioP2
23573;SDS011;11965;53.640;10.050;2023-05-20T00:02:21;1.89;;;1.88;;
23573;SDS011;11965;53.640;10.050;2023-05-20T00:04:48;1.81;;;1.79;;
23573;SDS011;11965;53.640;10.050;2023-05-20T00:07:15;1.83;;;1.82;;
23573;SDS011;11965;53.640;10.050;2023-05-20T00:09:43;1.72;;;1.71;;
23573;SDS011;11965;53.640;10.050;2023-05-20T00:12:10;1.68;;;1.67;;
23573;SDS011;11965;53.640;10.050;2023-05-20T00:14:37;1.88;;;1.88;;
23573;SDS011;11965;53.640;10.050;2023-05-20T00:17:04;1.88;;;1.88;;
23573;SDS011;11965;53.640;10.050;2023-05-20T00:19:31;1.98;;;1.98;;
23573;SDS011;11965;53.640;10.050;2023-05-20T00:21:58;2.25;;;2.25;;
23573;SDS011;11965;53.640;10.050;2023-05-20T00:24:27;1.86;;;1.86;;
23573;SDS011;11965;53.640;10.050;2023-05-20T00:26:55;2.02;;;2.02;;
23573;SDS011;11965;53.640;10.050;2023-05-20T00:29:22;1.82;;;1.82;;
23573;SDS011;11965;53.640;10.050;2023-05-20T00:31:49;1.96;;;1.95;;
23573;SDS011;11965;53.640;10.050;2023-05-20T00:34:16;1.91;;;1.89;;
23573;SDS011;11965;53.640;10.050;2023-05-20T00:36:42;1.96;;;1.95;;
23573;SDS011;11965;53.640;10.050;2023-05-20T00:39:09;1.93;;;1.93;;
23573;SDS011;11965;53.640;10.050;2023-05-20T00:41:36;1.74;;;1.74;;
23573;SDS011;11965;53.640;10.050;2023-05-20T00:44:05;1.83;;;1.83;;
23573;SDS011;11965;53.640;10.050;2023-05-20T00:46:32;1.84;;;1.84;;
23573;SDS011;11965;53.640;10.050;2023-05-20T00:48:59;1.98;;;1.98;;
23573;SDS011;11965;53.640;10.050;2023-05-20T00:51:26;2.06;;;2.06;;
23573;SDS011;11965;53.640;10.050;2023-05-20T00:53:53;2.17;;;2.17;;
23573;SDS011;11965;53.640;10.050;2023-05-20T00:56:21;2.00;;;2.00;;
23573;SDS011;11965;53.640;10.050;2023-05-20T00:58:48;1.99;;;1.99;;
23573;SDS011;11965;53.640;10.050;2023-05-20T01:01:17;2.05;;;2.05;;
23573;SDS011;11965;53.640;10.050;2023-05-20T01:03:44;2.11;;;2.11;;
23573;SDS011;11965;53.640;10.050;2023-05-20T01:06:14;2.20;;;2.20;;
23573;SDS011;11965;53.640;10.050;2023-05-20T01:08:40;1.98;;;1.98;;
23573;SDS011;11965;53.640;10.050;2023-05-20T01:11:12;2.03;;;2.02;;
23573;SDS011;11965;53.640;10.050;2023-05-20T01:13:48;1.95;;;1.94;;
23573;SDS011;11965;53.640;10.050;2023-05-20T01:16:23;2.08;;;2.06;;
23573;SDS011;11965;53.640;10.050;2023-05-20T01:18:50;1.90;;;1.89;;
23573;SDS011;11965;53.640;10.050;2023-05-20T01:21:21;1.92;;;1.92;;
23573;SDS011;11965;53.640;10.050;2023-05-20T01:23:50;2.10;;;2.10;;
23573;SDS011;11965;53.640;10.050;2023-05-20T01:26:16;1.93;;;1.92;;
23573;SDS011;11965;53.640;10.050;2023-05-20T01:28:46;1.95;;;1.93;;
23573;SDS011;11965;53.640;10.050;2023-05-20T01:31:14;2.29;;;2.28;;
23573;SDS011;11965;53.640;10.050;2023-05-20T01:33:47;2.05;;;2.05;;
23573;SDS011;11965;53.640;10.050;2023-05-20T01:36:22;1.80;;;1.80;;
23573;SDS011;11965;53.640;10.050;2023-05-20T01:38:52;2.01;;;2.01;;
23573;SDS011;11965;53.640;10.050;2023-05-20T01:41:21;2.05;;;2.05;;
23573;SDS011;11965;53.640;10.050;2023-05-20T01:43:52;1.76;;;1.76;;
23573;SDS011;11965;53.640;10.050;2023-05-20T01:46:19;2.02;;;2.02;;
23573;SDS011;11965;53.640;10.050;2023-05-20T01:48:47;1.82;;;1.82;;
23573;SDS011;11965;53.640;10.050;2023-05-20T01:51:14;1.71;;;1.71;;
23573;SDS011;11965;53.640;10.050;2023-05-20T01:53:42;1.75;;;1.75;;
23573;SDS011;11965;53.640;10.050;2023-05-20T01:56:10;2.17;;;2.17;;
23573;SDS011;11965;53.640;10.050;2023-05-20T01:58:37;1.93;;;1.93;;
23573;SDS011;11965;53.640;10.050;2023-05-20T02:01:04;1.84;;;1.84;;
23573;SDS011;11965;53.640;10.050;2023-05-20T02:03:31;1.80;;;1.79;;
23573;SDS011;11965;53.640;10.050;2023-05-20T02:05:58;1.79;;;1.79;;
23573;SDS011;11965;53.640;10.050;2023-05-20T02:08:25;1.81;;;1.81;;
23573;SDS011;11965;53.640;10.050;2023-05-20T02:10:52;1.78;;;1.78;;
23573;SDS011;11965;53.640;10.050;2023-05-20T02:13:20;1.65;;;1.65;;
23573;SDS011;11965;53.640;10.050;2023-05-20T02:15:47;1.71;;;1.71;;
23573;SDS011;11965;53.640;10.050;2023-05-20T02:18:14;1.81;;;1.80;;
23573;SDS011;11965;53.640;10.050;2023-05-20T02:20:44;1.63;;;1.61;;
23573;SDS011;11965;53.640;10.050;2023-05-20T02:23:11;1.75;;;1.74;;
23573;SDS011;11965;53.640;10.050;2023-05-20T02:25:38;1.92;;;1.91;;
23573;SDS011;11965;53.640;10.050;2023-05-20T02:28:08;1.90;;;1.89;;
23573;SDS011;11965;53.640;10.050;2023-05-20T02:30:37;1.83;;;1.82;;
23573;SDS011;11965;53.640;10.050;2023-05-20T02:33:04;1.61;;;1.61;;
23573;SDS011;11965;53.640;10.050;2023-05-20T02:35:33;2.06;;;2.05;;
23573;SDS011;11965;53.640;10.050;2023-05-20T02:38:00;1.91;;;1.89;;
23573;SDS011;11965;53.640;10.050;2023-05-20T02:40:27;1.87;;;1.86;;
23573;SDS011;11965;53.640;10.050;2023-05-20T02:42:53;1.82;;;1.81;;
23573;SDS011;11965;53.640;10.050;2023-05-20T02:45:20;1.73;;;1.73;;
23573;SDS011;11965;53.640;10.050;2023-05-20T02:47:48;1.72;;;1.72;;
23573;SDS011;11965;53.640;10.050;2023-05-20T02:50:15;2.12;;;2.10;;
23573;SDS011;11965;53.640;10.050;2023-05-20T02:52:42;1.98;;;1.95;;
23573;SDS011;11965;53.640;10.050;2023-05-20T02:55:10;1.92;;;1.91;;
23573;SDS011;11965;53.640;10.050;2023-05-20T02:57:37;1.92;;;1.91;;
23573;SDS011;11965;53.640;10.050;2023-05-20T03:00:07;1.81;;;1.80;;
23573;SDS011;11965;53.640;10.050;2023-05-20T03:02:36;1.80;;;1.79;;
23573;SDS011;11965;53.640;10.050;2023-05-20T03:05:04;1.85;;;1.84;;
23573;SDS011;11965;53.640;10.050;2023-05-20T03:07:33;1.88;;;1.87;;
23573;SDS011;11965;53.640;10.050;2023-05-20T03:10:05;1.96;;;1.94;;
23573;SDS011;11965;53.640;10.050;2023-05-20T03:12:33;1.99;;;1.96;;
23573;SDS011;11965;53.640;10.050;2023-05-20T03:15:00;2.04;;;2.02;;
23573;SDS011;11965;53.640;10.050;2023-05-20T03:17:34;1.79;;;1.78;;
23573;SDS011;11965;53.640;10.050;2023-05-20T03:20:00;1.94;;;1.92;;
23573;SDS011;11965;53.640;10.050;2023-05-20T03:22:29;1.76;;;1.75;;
23573;SDS011;11965;53.640;10.050;2023-05-20T03:24:56;1.88;;;1.88;;
23573;SDS011;11965;53.640;10.050;2023-05-20T03:27:24;1.82;;;1.81;;
23573;SDS011;11965;53.640;10.050;2023-05-20T03:29:52;1.77;;;1.77;;
23573;SDS011;11965;53.640;10.050;2023-05-20T03:32:20;1.87;;;1.87;;
23573;SDS011;11965;53.640;10.050;2023-05-20T03:34:47;1.88;;;1.87;;
23573;SDS011;11965;53.640;10.050;2023-05-20T03:37:14;1.93;;;1.92;;
23573;SDS011;11965;53.640;10.050;2023-05-20T03:39:42;1.83;;;1.82;;
23573;SDS011;11965;53.640;10.050;2023-05-20T03:42:09;1.99;;;1.98;;
23573;SDS011;11965;53.640;10.050;2023-05-20T03:44:36;2.38;;;2.36;;
23573;SDS011;11965;53.640;10.050;2023-05-20T03:47:06;1.84;;;1.83;;
23573;SDS011;11965;53.640;10.050;2023-05-20T03:49:33;2.03;;;2.00;;
23573;SDS011;11965;53.640;10.050;2023-05-20T03:52:00;2.10;;;2.07;;
23573;SDS011;11965;53.640;10.050;2023-05-20T03:54:27;2.14;;;2.10;;
23573;SDS011;11965;53.640;10.050;2023-05-20T03:56:57;2.06;;;2.04;;
23573;SDS011;11965;53.640;10.050;2023-05-20T03:59:27;2.15;;;2.13;;
23573;SDS011;11965;53.640;10.050;2023-05-20T04:01:54;2.25;;;2.25;;
23573;SDS011;11965;53.640;10.050;2023-05-20T04:04:22;1.92;;;1.91;;
23573;SDS011;11965;53.640;10.050;2023-05-20T04:06:49;1.71;;;1.69;;
23573;SDS011;11965;53.640;10.050;2023-05-20T04:09:16;2.00;;;1.99;;
23573;SDS011;11965;53.640;10.050;2023-05-20T04:11:43;1.90;;;1.88;;
23573;SDS011;11965;53.640;10.050;2023-05-20T04:14:11;1.76;;;1.74;;
23573;SDS011;11965;53.640;10.050;2023-05-20T04:16:38;2.09;;;2.07;;
23573;SDS011;11965;53.640;10.050;2023-05-20T04:19:05;2.01;;;1.98;;
23573;SDS011;11965;53.640;10.050;2023-05-20T04:21:33;1.91;;;1.90;;
23573;SDS011;11965;53.640;10.050;2023-05-20T04:24:00;2.15;;;2.13;;
23573;SDS011;11965;53.640;10.050;2023-05-20T04:26:26;2.14;;;2.11;;
23573;SDS011;11965;53.640;10.050;2023-05-20T04:28:54;2.05;;;2.03;;
23573;SDS011;11965;53.640;10.050;2023-05-20T04:31:24;1.90;;;1.88;;
23573;SDS011;11965;53.640;10.050;2023-05-20T04:33:51;2.11;;;2.11;;
23573;SDS011;11965;53.640;10.050;2023-05-20T04:36:18;2.00;;;1.98;;
23573;SDS011;11965;53.640;10.050;2023-05-20T04:38:49;2.01;;;2.00;;
23573;SDS011;11965;53.640;10.050;2023-05-20T04:41:16;2.09;;;2.04;;
23573;SDS011;11965;53.640;10.050;2023-05-20T04:43:43;1.98;;;1.91;;
23573;SDS011;11965;53.640;10.050;2023-05-20T04:46:10;2.07;;;2.00;;
23573;SDS011;11965;53.640;10.050;2023-05-20T04:48:38;2.01;;;1.94;;
23573;SDS011;11965;53.640;10.050;2023-05-20T04:51:05;2.09;;;2.02;;
23573;SDS011;11965;53.640;10.050;2023-05-20T04:53:32;2.26;;;2.18;;
23573;SDS011;11965;53.640;10.050;2023-05-20T04:56:00;2.11;;;2.04;;
23573;SDS011;11965;53.640;10.050;2023-05-20T04:58:28;2.34;;;2.26;;
23573;SDS011;11965;53.640;10.050;2023-05-20T05:00:55;2.09;;;2.02;;
23573;SDS011;11965;53.640;10.050;2023-05-20T05:03:22;2.20;;;2.13;;
23573;SDS011;11965;53.640;10.050;2023-05-20T05:05:54;2.11;;;2.06;;
23573;SDS011;11965;53.640;10.050;2023-05-20T05:08:21;2.12;;;2.07;;
23573;SDS011;11965;53.640;10.050;2023-05-20T05:10:50;2.11;;;2.06;;
23573;SDS011;11965;53.640;10.050;2023-05-20T05:13:17;2.36;;;2.32;;
23573;SDS011;11965;53.640;10.050;2023-05-20T05:15:44;2.18;;;2.14;;
23573;SDS011;11965;53.640;10.050;2023-05-20T05:18:11;2.10;;;2.06;;
23573;SDS011;11965;53.640;10.050;2023-05-20T05:20:42;2.05;;;2.01;;
23573;SDS011;11965;53.640;10.050;2023-05-20T05:23:11;2.02;;;1.97;;
23573;SDS011;11965;53.640;10.050;2023-05-20T05:25:38;2.29;;;2.21;;
23573;SDS011;11965;53.640;10.050;2023-05-20T05:28:05;2.28;;;2.19;;
23573;SDS011;11965;53.640;10.050;2023-05-20T05:30:32;2.86;;;2.71;;
23573;SDS011;11965;53.640;10.050;2023-05-20T05:32:59;2.26;;;2.15;;
23573;SDS011;11965;53.640;10.050;2023-05-20T05:35:26;2.33;;;2.23;;
23573;SDS011;11965;53.640;10.050;2023-05-20T05:37:55;2.32;;;2.27;;
23573;SDS011;11965;53.640;10.050;2023-05-20T05:40:23;2.15;;;2.09;;
23573;SDS011;11965;53.640;10.050;2023-05-20T05:42:57;2.20;;;2.14;;
23573;SDS011;11965;53.640;10.050;2023-05-20T05:45:24;2.16;;;2.08;;
23573;SDS011;11965;53.640;10.050;2023-05-20T05:47:51;2.26;;;2.18;;
23573;SDS011;11965;53.640;10.050;2023-05-20T05:50:18;2.34;;;2.27;;
23573;SDS011;11965;53.640;10.050;2023-05-20T05:52:46;2.23;;;2.15;;
23573;SDS011;11965;53.640;10.050;2023-05-20T05:55:13;2.32;;;2.22;;
23573;SDS011;11965;53.640;10.050;2023-05-20T05:57:42;2.48;;;2.40;;
23573;SDS011;11965;53.640;10.050;2023-05-20T06:00:11;2.09;;;2.04;;
23573;SDS011;11965;53.640;10.050;2023-05-20T06:02:44;2.36;;;2.30;;
23573;SDS011;11965;53.640;10.050;2023-05-20T06:05:21;2.18;;;2.12;;
23573;SDS011;11965;53.640;10.050;2023-05-20T06:07:52;2.18;;;2.12;;
23573;SDS011;11965;53.640;10.050;2023-05-20T06:10:19;2.24;;;2.18;;
23573;SDS011;11965;53.640;10.050;2023-05-20T06:12:47;2.00;;;1.96;;
23573;SDS011;11965;53.640;10.050;2023-05-20T06:15:14;2.09;;;2.05;;
23573;SDS011;11965;53.640;10.050;2023-05-20T06:17:41;2.28;;;2.23;;
23573;SDS011;11965;53.640;10.050;2023-05-20T06:20:08;2.35;;;2.29;;
23573;SDS011;11965;53.640;10.050;2023-05-20T06:22:36;2.61;;;2.51;;
23573;SDS011;11965;53.640;10.050;2023-05-20T06:25:03;2.34;;;2.28;;
23573;SDS011;11965;53.640;10.050;2023-05-20T06:27:33;2.37;;;2.29;;
23573;SDS011;11965;53.640;10.050;2023-05-20T06:30:02;2.30;;;2.24;;
23573;SDS011;11965;53.640;10.050;2023-05-20T06:32:29;2.32;;;2.24;;
23573;SDS011;11965;53.640;10.050;2023-05-20T06:34:57;2.49;;;2.41;;
23573;SDS011;11965;53.640;10.050;2023-05-20T06:37:23;2.19;;;2.14;;
23573;SDS011;11965;53.640;10.050;2023-05-20T06:39:51;2.53;;;2.49;;
23573;SDS011;11965;53.640;10.050;2023-05-20T06:42:19;2.26;;;2.24;;
23573;SDS011;11965;53.640;10.050;2023-05-20T06:45:01;2.25;;;2.21;;
23573;SDS011;11965;53.640;10.050;2023-05-20T06:47:35;2.64;;;2.59;;
23573;SDS011;11965;53.640;10.050;2023-05-20T06:50:02;2.47;;;2.44;;
23573;SDS011;11965;53.640;10.050;2023-05-20T06:52:30;2.62;;;2.60;;
23573;SDS011;11965;53.640;10.050;2023-05-20T06:54:57;2.96;;;2.89;;
23573;SDS011;11965;53.640;10.050;2023-05-20T06:57:23;2.51;;;2.45;;
23573;SDS011;11965;53.640;10.050;2023-05-20T06:59:51;2.45;;;2.40;;
23573;SDS011;11965;53.640;10.050;2023-05-20T07:02:20;2.49;;;2.45;;
23573;SDS011;11965;53.640;10.050;2023-05-20T07:04:48;2.58;;;2.56;;
23573;SDS011;11965;53.640;10.050;2023-05-20T07:07:15;2.29;;;2.25;;
23573;SDS011;11965;53.640;10.050;2023-05-20T07:09:43;2.74;;;2.69;;
23573;SDS011;11965;53.640;10.050;2023-05-20T07:12:10;2.42;;;2.39;;
23573;SDS011;11965;53.640;10.050;2023-05-20T07:14:37;2.78;;;2.75;;
23573;SDS011;11965;53.640;10.050;2023-05-20T07:17:04;2.61;;;2.59;;
23573;SDS011;11965;53.640;10.050;2023-05-20T07:19:33;2.36;;;2.35;;
23573;SDS011;11965;53.640;10.050;2023-05-20T07:22:01;2.59;;;2.58;;
23573;SDS011;11965;53.640;10.050;2023-05-20T07:24:47;2.83;;;2.82;;
23573;SDS011;11965;53.640;10.050;2023-05-20T07:27:14;2.49;;;2.47;;
23573;SDS011;11965;53.640;10.050;2023-05-20T07:29:41;2.79;;;2.78;;
23573;SDS011;11965;53.640;10.050;2023-05-20T07:32:09;2.84;;;2.82;;
23573;SDS011;11965;53.640;10.050;2023-05-20T07:34:38;2.90;;;2.89;;
23573;SDS011;11965;53.640;10.050;2023-05-20T07:37:05;2.76;;;2.76;;
23573;SDS011;11965;53.640;10.050;2023-05-20T07:39:34;2.81;;;2.80;;
23573;SDS011;11965;53.640;10.050;2023-05-20T07:42:01;2.87;;;2.86;;
23573;SDS011;11965;53.640;10.050;2023-05-20T07:44:28;2.97;;;2.96;;
23573;SDS011;11965;53.640;10.050;2023-05-20T07:46:56;2.89;;;2.89;;
23573;SDS011;11965;53.640;10.050;2023-05-20T07:49:23;2.93;;;2.93;;
23573;SDS011;11965;53.640;10.050;2023-05-20T07:51:52;2.96;;;2.96;;
23573;SDS011;11965;53.640;10.050;2023-05-20T07:54:19;2.97;;;2.97;;
23573;SDS011;11965;53.640;10.050;2023-05-20T07:56:48;2.80;;;2.80;;
23573;SDS011;11965;53.640;10.050;2023-05-20T07:59:17;2.95;;;2.95;;
23573;SDS011;11965;53.640;10.050;2023-05-20T08:01:46;3.02;;;3.02;;
23573;SDS011;11965;53.640;10.050;2023-05-20T08:04:15;3.19;;;3.19;;
23573;SDS011;11965;53.640;10.050;2023-05-20T08:06:42;2.77;;;2.77;;
23573;SDS011;11965;53.640;10.050;2023-05-20T08:09:16;2.73;;;2.73;;
23573;SDS011;11965;53.640;10.050;2023-05-20T08:11:48;2.87;;;2.87;;
23573;SDS011;11965;53.640;10.050;2023-05-20T08:14:15;2.95;;;2.95;;
23573;SDS011;11965;53.640;10.050;2023-05-20T08:16:43;2.87;;;2.87;;
23573;SDS011;11965;53.640;10.050;2023-05-20T08:19:10;3.25;;;3.25;;
23573;SDS011;11965;53.640;10.050;2023-05-20T08:21:37;2.95;;;2.94;;
23573;SDS011;11965;53.640;10.050;2023-05-20T08:24:05;3.35;;;3.35;;
23573;SDS011;11965;53.640;10.050;2023-05-20T08:26:33;2.97;;;2.97;;
23573;SDS011;11965;53.640;10.050;2023-05-20T08:29:00;2.97;;;2.97;;
23573;SDS011;11965;53.640;10.050;2023-05-20T08:31:27;2.82;;;2.81;;
23573;SDS011;11965;53.640;10.050;2023-05-20T08:33:54;2.87;;;2.87;;
23573;SDS011;11965;53.640;10.050;2023-05-20T08:36:22;2.86;;;2.86;;
23573;SDS011;11965;53.640;10.050;2023-05-20T08:38:48;2.97;;;2.97;;
23573;SDS011;11965;53.640;10.050;2023-05-20T08:41:15;3.15;;;3.15;;
23573;SDS011;11965;53.640;10.050;2023-05-20T08:43:46;3.10;;;3.10;;
23573;SDS011;11965;53.640;10.050;2023-05-20T08:46:15;2.88;;;2.88;;
23573;SDS011;11965;53.640;10.050;2023-05-20T08:48:45;2.81;;;2.81;;
23573;SDS011;11965;53.640;10.050;2023-05-20T08:51:13;2.90;;;2.90;;
23573;SDS011;11965;53.640;10.050;2023-05-20T08:53:45;2.35;;;2.35;;
23573;SDS011;11965;53.640;10.050;2023-05-20T08:56:12;2.38;;;2.38;;
23573;SDS011;11965;53.640;10.050;2023-05-20T08:58:42;2.42;;;2.42;;
23573;SDS011;11965;53.640;10.050;2023-05-20T09:01:12;2.62;;;2.62;;
23573;SDS011;11965;53.640;10.050;2023-05-20T09:03:39;2.36;;;2.36;;
23573;SDS011;11965;53.640;10.050;2023-05-20T09:06:06;2.52;;;2.50;;
23573;SDS011;11965;53.640;10.050;2023-05-20T09:08:34;2.67;;;2.63;;
23573;SDS011;11965;53.640;10.050;2023-05-20T09:11:02;2.45;;;2.45;;
23573;SDS011;11965;53.640;10.050;2023-05-20T09:13:29;2.29;;;2.29;;
23573;SDS011;11965;53.640;10.050;2023-05-20T09:15:58;2.36;;;2.36;;
23573;SDS011;11965;53.640;10.050;2023-05-20T09:18:27;2.30;;;2.30;;
23573;SDS011;11965;53.640;10.050;2023-05-20T09:20:54;2.32;;;2.32;;
23573;SDS011;11965;53.640;10.050;2023-05-20T09:23:22;2.30;;;2.29;;
23573;SDS011;11965;53.640;10.050;2023-05-20T09:25:52;2.45;;;2.44;;
23573;SDS011;11965;53.640;10.050;2023-05-20T09:28:19;2.33;;;2.33;;
23573;SDS011;11965;53.640;10.050;2023-05-20T09:30:48;2.13;;;2.13;;
23573;SDS011;11965;53.640;10.050;2023-05-20T09:33:16;2.38;;;2.38;;
23573;SDS011;11965;53.640;10.050;2023-05-20T09:35:44;2.44;;;2.44;;
23573;SDS011;11965;53.640;10.050;2023-05-20T09:38:12;2.14;;;2.14;;
23573;SDS011;11965;53.640;10.050;2023-05-20T09:40:41;2.39;;;2.39;;
23573;SDS011;11965;53.640;10.050;2023-05-20T09:43:13;2.37;;;2.36;;
23573;SDS011;11965;53.640;10.050;2023-05-20T09:45:42;2.35;;;2.34;;
23573;SDS011;11965;53.640;10.050;2023-05-20T09:48:11;2.31;;;2.31;;
23573;SDS011;11965;53.640;10.050;2023-05-20T09:50:50;2.10;;;2.10;;
23573;SDS011;11965;53.640;10.050;2023-05-20T09:53:34;2.42;;;2.42;;
23573;SDS011;11965;53.640;10.050;2023-05-20T09:56:02;2.19;;;2.19;;
23573;SDS011;11965;53.640;10.050;2023-05-20T09:58:29;2.33;;;2.33;;
23573;SDS011;11965;53.640;10.050;2023-05-20T10:01:00;2.14;;;2.14;;
23573;SDS011;11965;53.640;10.050;2023-05-20T10:03:27;2.32;;;2.32;;
23573;SDS011;11965;53.640;10.050;2023-05-20T10:05:59;2.34;;;2.34;;
23573;SDS011;11965;53.640;10.050;2023-05-20T10:08:50;2.20;;;2.20;;
23573;SDS011;11965;53.640;10.050;2023-05-20T10:11:32;2.21;;;2.21;;
23573;SDS011;11965;53.640;10.050;2023-05-20T10:14:17;2.34;;;2.34;;
23573;SDS011;11965;53.640;10.050;2023-05-20T10:17:01;2.39;;;2.39;;
23573;SDS011;11965;53.640;10.050;2023-05-20T10:19:36;2.38;;;2.38;;
23573;SDS011;11965;53.640;10.050;2023-05-20T10:22:05;2.42;;;2.42;;
23573;SDS011;11965;53.640;10.050;2023-05-20T10:24:36;2.56;;;2.56;;
23573;SDS011;11965;53.640;10.050;2023-05-20T10:27:07;2.40;;;2.40;;
23573;SDS011;11965;53.640;10.050;2023-05-20T10:29:42;2.45;;;2.45;;
23573;SDS011;11965;53.640;10.050;2023-05-20T10:32:21;2.39;;;2.39;;
23573;SDS011;11965;53.640;10.050;2023-05-20T10:34:50;2.43;;;2.43;;
23573;SDS011;11965;53.640;10.050;2023-05-20T10:37:23;2.37;;;2.36;;
23573;SDS011;11965;53.640;10.050;2023-05-20T10:40:01;2.33;;;2.33;;
23573;SDS011;11965;53.640;10.050;2023-05-20T10:42:31;2.40;;;2.40;;
23573;SDS011;11965;53.640;10.050;2023-05-20T10:44:58;2.37;;;2.37;;
23573;SDS011;11965;53.640;10.050;2023-05-20T10:47:26;2.42;;;2.41;;
23573;SDS011;11965;53.640;10.050;2023-05-20T10:49:53;2.61;;;2.61;;
23573;SDS011;11965;53.640;10.050;2023-05-20T10:52:23;2.75;;;2.75;;
23573;SDS011;11965;53.640;10.050;2023-05-20T10:54:54;3.20;;;3.20;;
23573;SDS011;11965;53.640;10.050;2023-05-20T10:57:24;2.76;;;2.76;;
23573;SDS011;11965;53.640;10.050;2023-05-20T10:59:53;2.82;;;2.82;;
23573;SDS011;11965;53.640;10.050;2023-05-20T11:02:21;2.60;;;2.60;;
23573;SDS011;11965;53.640;10.050;2023-05-20T11:04:52;2.86;;;2.86;;
23573;SDS011;11965;53.640;10.050;2023-05-20T11:07:27;2.83;;;2.83;;
23573;SDS011;11965;53.640;10.050;2023-05-20T11:09:55;2.53;;;2.53;;
23573;SDS011;11965;53.640;10.050;2023-05-20T11:12:24;2.81;;;2.81;;
23573;SDS011;11965;53.640;10.050;2023-05-20T11:14:52;2.65;;;2.65;;
23573;SDS011;11965;53.640;10.050;2023-05-20T11:17:19;2.74;;;2.74;;
23573;SDS011;11965;53.640;10.050;2023-05-20T11:19:46;2.43;;;2.43;;
23573;SDS011;11965;53.640;10.050;2023-05-20T11:22:15;2.68;;;2.68;;
23573;SDS011;11965;53.640;10.050;2023-05-20T11:24:43;2.76;;;2.76;;
23573;SDS011;11965;53.640;10.050;2023-05-20T11:27:11;2.74;;;2.74;;
23573;SDS011;11965;53.640;10.050;2023-05-20T11:29:38;2.55;;;2.55;;
23573;SDS011;11965;53.640;10.050;2023-05-20T11:32:06;2.72;;;2.72;;
23573;SDS011;11965;53.640;10.050;2023-05-20T11:34:34;2.80;;;2.80;;
23573;SDS011;11965;53.640;10.050;2023-05-20T11:37:05;2.93;;;2.93;;
23573;SDS011;11965;53.640;10.050;2023-05-20T11:39:35;2.88;;;2.88;;
23573;SDS011;11965;53.640;10.050;2023-05-20T11:42:04;3.12;;;3.12;;
23573;SDS011;11965;53.640;10.050;2023-05-20T11:44:31;2.79;;;2.79;;
23573;SDS011;11965;53.640;10.050;2023-05-20T11:46:59;2.85;;;2.85;;
23573;SDS011;11965;53.640;10.050;2023-05-20T11:49:27;2.62;;;2.62;;
23573;SDS011;11965;53.640;10.050;2023-05-20T11:51:55;2.76;;;2.76;;
23573;SDS011;11965;53.640;10.050;2023-05-20T11:54:22;2.98;;;2.95;;
23573;SDS011;11965;53.640;10.050;2023-05-20T11:56:50;3.01;;;3.01;;
23573;SDS011;11965;53.640;10.050;2023-05-20T11:59:20;2.95;;;2.95;;
23573;SDS011;11965;53.640;10.050;2023-05-20T12:01:49;2.99;;;2.99;;
23573;SDS011;11965;53.640;10.050;2023-05-20T12:04:16;3.19;;;3.19;;
23573;SDS011;11965;53.640;10.050;2023-05-20T12:06:43;3.29;;;3.29;;
23573;SDS011;11965;53.640;10.050;2023-05-20T12:09:11;2.86;;;2.86;;
23573;SDS011;11965;53.640;10.050;2023-05-20T12:11:41;2.93;;;2.93;;
23573;SDS011;11965;53.640;10.050;2023-05-20T12:14:12;2.77;;;2.77;;
23573;SDS011;11965;53.640;10.050;2023-05-20T12:16:41;2.85;;;2.85;;
23573;SDS011;11965;53.640;10.050;2023-05-20T12:19:08;3.25;;;3.25;;
23573;SDS011;11965;53.640;10.050;2023-05-20T12:21:35;3.17;;;3.17;;
23573;SDS011;11965;53.640;10.050;2023-05-20T12:24:05;3.24;;;3.24;;
23573;SDS011;11965;53.640;10.050;2023-05-20T12:26:33;3.15;;;3.15;;
23573;SDS011;11965;53.640;10.050;2023-05-20T12:29:00;3.16;;;3.16;;
23573;SDS011;11965;53.640;10.050;2023-05-20T12:31:27;2.80;;;2.80;;
23573;SDS011;11965;53.640;10.050;2023-05-20T12:33:56;2.92;;;2.92;;
23573;SDS011;11965;53.640;10.050;2023-05-20T12:36:22;3.23;;;3.23;;
23573;SDS011;11965;53.640;10.050;2023-05-20T12:38:51;3.17;;;3.17;;
23573;SDS011;11965;53.640;10.050;2023-05-20T12:41:17;3.17;;;3.17;;
23573;SDS011;11965;53.640;10.050;2023-05-20T12:43:44;3.16;;;3.16;;
23573;SDS011;11965;53.640;10.050;2023-05-20T12:46:11;3.16;;;3.16;;
23573;SDS011;11965;53.640;10.050;2023-05-20T12:48:39;3.16;;;3.16;;
23573;SDS011;11965;53.640;10.050;2023-05-20T12:51:07;3.27;;;3.27;;
23573;SDS011;11965;53.640;10.050;2023-05-20T12:53:34;3.27;;;3.27;;
23573;SDS011;11965;53.640;10.050;2023-05-20T12:56:01;3.00;;;3.00;;
23573;SDS011;11965;53.640;10.050;2023-05-20T12:58:39;2.94;;;2.94;;
23573;SDS011;11965;53.640;10.050;2023-05-20T13:01:06;2.77;;;2.77;;
23573;SDS011;11965;53.640;10.050;2023-05-20T13:03:33;2.76;;;2.76;;
23573;SDS011;11965;53.640;10.050;2023-05-20T13:06:00;2.73;;;2.73;;
23573;SDS011;11965;53.640;10.050;2023-05-20T13:08:29;2.87;;;2.87;;
23573;SDS011;11965;53.640;10.050;2023-05-20T13:10:56;5.73;;;5.72;;
23573;SDS011;11965;53.640;10.050;2023-05-20T13:13:23;3.08;;;3.05;;
23573;SDS011;11965;53.640;10.050;2023-05-20T13:15:50;2.83;;;2.80;;
23573;SDS011;11965;53.640;10.050;2023-05-20T13:18:18;2.74;;;2.74;;
23573;SDS011;11965;53.640;10.050;2023-05-20T13:20:46;2.60;;;2.60;;
23573;SDS011;11965;53.640;10.050;2023-05-20T13:23:15;2.61;;;2.61;;
23573;SDS011;11965;53.640;10.050;2023-05-20T13:25:43;2.75;;;2.75;;
23573;SDS011;11965;53.640;10.050;2023-05-20T13:28:10;2.62;;;2.62;;
23573;SDS011;11965;53.640;10.050;2023-05-20T13:30:41;2.60;;;2.60;;
23573;SDS011;11965;53.640;10.050;2023-05-20T13:33:08;2.78;;;2.78;;
23573;SDS011;11965;53.640;10.050;2023-05-20T13:35:35;2.79;;;2.79;;
23573;SDS011;11965;53.640;10.050;2023-05-20T13:38:02;3.12;;;3.12;;
23573;SDS011;11965;53.640;10.050;2023-05-20T13:40:38;2.99;;;2.99;;
23573;SDS011;11965;53.640;10.050;2023-05-20T13:43:07;3.12;;;3.12;;
23573;SDS011;11965;53.640;10.050;2023-05-20T13:45:34;2.83;;;2.83;;
23573;SDS011;11965;53.640;10.050;2023-05-20T13:48:01;2.92;;;2.92;;
23573;SDS011;11965;53.640;10.050;2023-05-20T13:50:28;3.13;;;3.13;;
23573;SDS011;11965;53.640;10.050;2023-05-20T13:52:55;3.02;;;3.02;;
23573;SDS011;11965;53.640;10.050;2023-05-20T13:55:21;2.79;;;2.79;;
23573;SDS011;11965;53.640;10.050;2023-05-20T13:57:48;2.68;;;2.68;;
23573;SDS011;11965;53.640;10.050;2023-05-20T14:00:18;2.69;;;2.69;;
23573;SDS011;11965;53.640;10.050;2023-05-20T14:02:48;2.80;;;2.80;;
23573;SDS011;11965;53.640;10.050;2023-05-20T14:05:15;3.04;;;3.04;;
23573;SDS011;11965;53.640;10.050;2023-05-20T14:07:43;3.05;;;3.05;;
23573;SDS011;11965;53.640;10.050;2023-05-20T14:10:09;2.94;;;2.94;;
23573;SDS011;11965;53.640;10.050;2023-05-20T14:12:36;3.09;;;3.09;;
23573;SDS011;11965;53.640;10.050;2023-05-20T14:15:06;3.27;;;3.27;;
23573;SDS011;11965;53.640;10.050;2023-05-20T14:17:39;3.14;;;3.14;;
23573;SDS011;11965;53.640;10.050;2023-05-20T14:20:07;3.25;;;3.25;;
23573;SDS011;11965;53.640;10.050;2023-05-20T14:22:35;2.97;;;2.97;;
23573;SDS011;11965;53.640;10.050;2023-05-20T14:25:02;3.09;;;3.09;;
23573;SDS011;11965;53.640;10.050;2023-05-20T14:27:31;3.37;;;3.37;;
23573;SDS011;11965;53.640;10.050;2023-05-20T14:29:58;3.34;;;3.34;;
23573;SDS011;11965;53.640;10.050;2023-05-20T14:32:26;3.43;;;3.43;;
23573;SDS011;11965;53.640;10.050;2023-05-20T14:34:54;3.61;;;3.61;;
23573;SDS011;11965;53.640;10.050;2023-05-20T14:37:21;3.12;;;3.12;;
23573;SDS011;11965;53.640;10.050;2023-05-20T14:39:48;3.29;;;3.29;;
23573;SDS011;11965;53.640;10.050;2023-05-20T14:42:17;3.14;;;3.14;;